createdAt,value
2022-08-05T00:00:52.232Z,22.64
2022-08-05T00:03:57.078Z,22.57
2022-08-05T00:07:00.266Z,22.84
2022-08-05T00:10:27.127Z,22.86
2022-08-05T00:13:39.272Z,22.75
2022-08-05T00:16:52.995Z,22.57
2022-08-05T00:20:01.960Z,22.58
2022-08-05T00:23:12.857Z,22.51
2022-08-05T00:26:16.643Z,22.56
2022-08-05T00:29:22.531Z,22.59
2022-08-05T00:32:27.959Z,22.62
2022-08-05T00:35:33.358Z,22.81
2022-08-05T00:38:36.378Z,22.72
2022-08-05T00:41:55.305Z,22.63
2022-08-05T00:44:58.429Z,22.57
2022-08-05T00:48:05.932Z,22.58
2022-08-05T00:51:51.763Z,22.59
2022-08-05T00:54:33.187Z,22.43
2022-08-05T00:57:55.644Z,22.36
2022-08-05T01:00:59.231Z,22.49
2022-08-05T01:04:02.087Z,22.38
2022-08-05T01:07:06.490Z,22.47
2022-08-05T01:10:17.133Z,22.41
2022-08-05T01:13:27.153Z,22.50
2022-08-05T01:16:32.053Z,22.42
2022-08-05T01:20:01.569Z,22.38
2022-08-05T01:23:14.947Z,22.35
2022-08-05T01:26:34.263Z,22.33
2022-08-05T01:29:42.971Z,22.22
2022-08-05T01:32:48.074Z,22.37
2022-08-05T01:35:53.418Z,22.33
2022-08-05T01:38:56.665Z,22.58
2022-08-05T01:42:04.411Z,22.26
2022-08-05T01:45:10.649Z,22.30
2022-08-05T01:48:13.831Z,22.31
2022-08-05T01:51:18.421Z,22.34
2022-08-05T01:54:25.619Z,22.35
2022-08-05T01:58:29.947Z,22.30
2022-08-05T02:00:57.120Z,22.31
2022-08-05T02:04:01.465Z,22.37
2022-08-05T02:07:04.380Z,22.54
2022-08-05T02:10:10.633Z,22.34
2022-08-05T02:13:24.381Z,22.39
2022-08-05T02:16:34.062Z,22.32
2022-08-05T02:19:40.602Z,22.25
2022-08-05T02:22:56.141Z,22.41
2022-08-05T02:26:01.489Z,22.35
2022-08-05T02:29:05.170Z,22.37
2022-08-05T02:32:24.192Z,22.37
2022-08-05T02:35:37.850Z,22.31
2022-08-05T02:38:52.907Z,22.28
2022-08-05T02:42:01.179Z,22.24
2022-08-05T02:45:05.069Z,22.15
2022-08-05T02:48:12.892Z,22.28
2022-08-05T02:51:17.027Z,22.29
2022-08-05T02:54:34.782Z,22.35
2022-08-05T02:58:09.385Z,22.26
2022-08-05T03:01:03.723Z,22.29
2022-08-05T03:04:13.963Z,22.54
2022-08-05T03:07:24.713Z,22.55
2022-08-05T03:10:40.121Z,22.54
2022-08-05T03:13:51.838Z,22.52
2022-08-05T03:17:09.038Z,22.56
2022-08-05T03:20:13.823Z,22.77
2022-08-05T03:23:16.923Z,22.64
2022-08-05T03:26:31.682Z,22.67
2022-08-05T03:29:45.566Z,22.93
2022-08-05T03:32:58.039Z,23.20
2022-08-05T03:36:02.495Z,23.28
2022-08-05T03:39:12.998Z,23.28
2022-08-05T03:42:22.866Z,23.20
2022-08-05T03:45:29.835Z,23.26
2022-08-05T03:48:52.583Z,23.38
2022-08-05T03:52:38.328Z,23.49
2022-08-05T03:56:04.086Z,23.50
2022-08-05T03:58:51.150Z,23.43
2022-08-05T04:01:58.920Z,23.44
2022-08-05T04:05:02.858Z,23.60
2022-08-05T04:08:29.613Z,23.60
2022-08-05T04:11:47.410Z,23.51
2022-08-05T04:14:53.770Z,23.59
2022-08-05T04:18:02.732Z,23.68
2022-08-05T04:21:06.029Z,23.52
2022-08-05T04:24:18.830Z,23.61
2022-08-05T04:27:33.282Z,23.68
2022-08-05T04:30:46.674Z,23.81
2022-08-05T04:33:54.716Z,23.71
2022-08-05T04:37:13.701Z,23.87
2022-08-05T04:40:19.482Z,23.78
2022-08-05T04:43:22.532Z,23.84
2022-08-05T04:46:28.783Z,23.94
2022-08-05T04:50:01.129Z,23.96
2022-08-05T04:52:54.296Z,23.87
2022-08-05T04:56:33.657Z,23.96
2022-08-05T04:59:26.680Z,24.12
2022-08-05T05:02:43.311Z,24.12
2022-08-05T05:06:35.807Z,24.15
2022-08-05T05:09:09.883Z,24.09
2022-08-05T05:12:18.408Z,24.22
2022-08-05T05:15:57.003Z,24.24
2022-08-05T05:19:09.041Z,24.30
2022-08-05T05:22:24.396Z,24.47
2022-08-05T05:25:40.545Z,24.43
2022-08-05T05:28:45.358Z,24.47
2022-08-05T05:31:48.323Z,24.47
2022-08-05T05:34:53.867Z,24.64
2022-08-05T05:37:59.783Z,24.54
2022-08-05T05:41:03.552Z,24.63
2022-08-05T05:44:36.079Z,24.54
2022-08-05T05:48:05.378Z,24.64
2022-08-05T05:50:58.669Z,24.76
2022-08-05T05:54:17.615Z,24.88
2022-08-05T05:57:22.626Z,24.80
2022-08-05T06:00:34.069Z,24.80
2022-08-05T06:03:40.503Z,24.95
2022-08-05T06:07:01.487Z,24.96
2022-08-05T06:10:10.021Z,24.96
2022-08-05T06:13:13.861Z,24.96
2022-08-05T06:16:30.644Z,25.09
2022-08-05T06:19:35.789Z,25.10
2022-08-05T06:22:40.501Z,25.13
2022-08-05T06:26:12.259Z,25.08
2022-08-05T06:29:25.444Z,25.17
2022-08-05T06:32:32.609Z,25.27
2022-08-05T06:36:07.297Z,25.36
2022-08-05T06:38:58.678Z,25.28
2022-08-05T06:42:04.099Z,25.36
2022-08-05T06:45:08.488Z,25.43
2022-08-05T06:48:53.098Z,25.40
2022-08-05T06:51:36.143Z,25.37
2022-08-05T06:54:43.836Z,25.52
2022-08-05T06:58:02.639Z,25.52
2022-08-05T07:01:21.014Z,25.53
2022-08-05T07:04:25.481Z,25.65
2022-08-05T07:07:35.411Z,25.65
2022-08-05T07:10:53.427Z,25.69
2022-08-05T07:14:20.657Z,25.67
2022-08-05T07:17:59.332Z,25.77
2022-08-05T07:20:57.191Z,25.63
2022-08-05T07:24:01.218Z,25.59
2022-08-05T07:27:04.460Z,25.76
2022-08-05T07:30:22.211Z,25.96
2022-08-05T07:33:35.234Z,25.94
2022-08-05T07:36:41.820Z,25.84
2022-08-05T07:40:25.890Z,25.55
2022-08-05T07:43:20.319Z,25.74
2022-08-05T07:46:25.976Z,26.15
2022-08-05T07:49:29.167Z,26.23
2022-08-05T07:52:33.325Z,26.56
2022-08-05T07:56:05.903Z,26.67
2022-08-05T07:59:02.472Z,26.55
2022-08-05T08:02:05.456Z,26.88
2022-08-05T08:05:08.800Z,26.82
2022-08-05T08:08:15.729Z,26.97
2022-08-05T08:11:18.629Z,26.95
2022-08-05T08:14:30.799Z,26.87
2022-08-05T08:17:34.425Z,26.84
2022-08-05T08:20:45.111Z,26.83
2022-08-05T08:24:05.271Z,26.84
2022-08-05T08:27:09.704Z,26.88
2022-08-05T08:30:28.623Z,26.89
2022-08-05T08:33:38.189Z,27.00
2022-08-05T08:36:47.611Z,27.05
2022-08-05T08:39:56.809Z,27.15
2022-08-05T08:44:57.902Z,27.23
2022-08-05T08:46:24.677Z,27.51
2022-08-05T08:50:06.103Z,27.54
2022-08-05T08:52:55.853Z,27.77
2022-08-05T08:56:03.003Z,27.81
2022-08-05T08:59:19.484Z,27.77
2022-08-05T09:02:26.863Z,27.42
2022-08-05T09:05:38.837Z,27.73
2022-08-05T09:08:53.020Z,27.81
2022-08-05T09:12:04.798Z,27.87
2022-08-05T09:15:16.368Z,27.74
2022-08-05T09:18:19.483Z,27.47
2022-08-05T09:22:22.621Z,27.25
2022-08-05T09:24:57.988Z,27.03
2022-08-05T09:28:10.196Z,29.79
2022-08-05T09:31:22.661Z,27.65
2022-08-05T09:34:53.761Z,29.25
2022-08-05T09:38:17.953Z,31.60
2022-08-05T09:41:21.643Z,29.71
2022-08-05T09:44:39.114Z,28.29
2022-08-05T09:47:55.588Z,28.01
2022-08-05T09:51:02.517Z,27.90
2022-08-05T09:54:08.504Z,27.75
2022-08-05T09:57:23.246Z,27.80
2022-08-05T10:00:30.763Z,27.81
2022-08-05T10:03:56.546Z,27.78
2022-08-05T10:07:20.175Z,27.82
2022-08-05T10:10:28.255Z,27.82
2022-08-05T10:13:45.696Z,27.86
2022-08-05T10:16:53.496Z,27.85
2022-08-05T10:20:03.884Z,27.89
2022-08-05T10:23:34.730Z,27.88
2022-08-05T10:26:37.701Z,27.93
2022-08-05T10:30:07.002Z,27.96
2022-08-05T10:33:18.378Z,28.02
2022-08-05T10:36:23.758Z,27.98
2022-08-05T10:40:03.517Z,28.01
2022-08-05T10:42:55.717Z,27.91
2022-08-05T10:46:06.314Z,27.83
2022-08-05T10:49:16.951Z,27.86
2022-08-05T10:52:39.096Z,27.86
2022-08-05T10:56:14.497Z,27.94
2022-08-05T11:00:04.398Z,28.10
2022-08-05T11:03:24.341Z,28.23
2022-08-05T11:06:31.669Z,28.24
2022-08-05T11:09:49.593Z,28.37
2022-08-05T11:12:55.277Z,28.32
2022-08-05T11:16:22.317Z,28.36
2022-08-05T11:20:16.927Z,28.24
2022-08-05T11:23:33.189Z,28.23
2022-08-05T11:27:08.373Z,28.28
2022-08-05T11:30:15.871Z,28.48
2022-08-05T11:33:45.951Z,28.53
2022-08-05T11:36:55.330Z,28.43
2022-08-05T11:40:03.389Z,28.51
2022-08-05T11:43:07.208Z,28.47
2022-08-05T11:46:32.110Z,28.46
2022-08-05T11:49:36.251Z,28.38
2022-08-05T11:52:39.295Z,28.40
2022-08-05T11:55:58.810Z,28.56
2022-08-05T11:59:02.532Z,28.60
2022-08-05T12:02:06.878Z,28.74
2022-08-05T12:05:36.347Z,28.96
2022-08-05T12:08:49.989Z,28.76
2022-08-05T12:11:57.179Z,28.70
2022-08-05T12:15:02.710Z,28.66
2022-08-05T12:18:10.866Z,28.89
2022-08-05T12:21:17.451Z,28.84
2022-08-05T12:24:21.129Z,28.92
2022-08-05T12:27:33.240Z,29.09
2022-08-05T12:30:39.311Z,29.09
2022-08-05T12:33:49.179Z,29.11
2022-08-05T12:36:53.824Z,29.21
2022-08-05T12:40:03.161Z,28.83
2022-08-05T12:43:09.304Z,29.09
2022-08-05T12:46:26.153Z,29.26
2022-08-05T12:50:02.143Z,29.44
2022-08-05T12:53:06.444Z,29.60
2022-08-05T12:56:34.621Z,29.31
2022-08-05T13:01:58.638Z,29.11
2022-08-05T13:03:14.778Z,28.88
2022-08-05T13:06:20.763Z,28.76
2022-08-05T13:09:28.612Z,28.72
2022-08-05T13:12:31.746Z,28.74
2022-08-05T13:15:50.256Z,28.53
2022-08-05T13:18:57.583Z,28.48
2022-08-05T13:22:00.627Z,28.50
2022-08-05T13:25:07.881Z,28.53
2022-08-05T13:28:11.999Z,28.54
2022-08-05T13:31:18.522Z,28.44
2022-08-05T13:34:41.804Z,28.47
2022-08-05T13:37:46.437Z,28.53
2022-08-05T13:40:58.965Z,28.93
2022-08-05T13:44:03.599Z,29.19
2022-08-05T13:47:09.095Z,29.54
2022-08-05T13:50:16.534Z,30.15
2022-08-05T13:53:19.607Z,30.07
2022-08-05T13:56:22.610Z,30.36
2022-08-05T13:59:27.117Z,29.57
2022-08-05T14:02:31.745Z,29.40
2022-08-05T14:06:04.494Z,29.00
2022-08-05T14:09:00.478Z,29.25
2022-08-05T14:12:17.287Z,28.69
2022-08-05T14:16:05.084Z,28.51
2022-08-05T14:18:45.636Z,28.39
2022-08-05T14:22:09.800Z,28.37
2022-08-05T14:25:21.814Z,28.31
2022-08-05T14:28:26.130Z,28.19
2022-08-05T14:31:54.579Z,28.28
2022-08-05T14:34:57.724Z,28.29
2022-08-05T14:38:01.111Z,28.19
2022-08-05T14:41:06.422Z,28.33
2022-08-05T14:44:20.412Z,28.27
2022-08-05T14:48:03.268Z,28.37
2022-08-05T14:50:49.713Z,28.35
2022-08-05T14:54:26.371Z,27.94
2022-08-05T14:57:15.924Z,28.31
2022-08-05T15:00:21.450Z,28.24
2022-08-05T15:03:33.654Z,29.72
2022-08-05T15:06:38.596Z,28.91
2022-08-05T15:09:52.287Z,28.92
2022-08-05T15:13:04.309Z,28.48
2022-08-05T15:16:08.070Z,28.48
2022-08-05T15:19:23.435Z,28.31
2022-08-05T15:22:28.702Z,27.98
2022-08-05T15:25:41.062Z,28.05
2022-08-05T15:28:54.477Z,27.99
2022-08-05T15:31:57.467Z,27.94
2022-08-05T15:35:10.670Z,28.04
2022-08-05T15:38:33.632Z,28.03
2022-08-05T15:41:57.631Z,28.11
2022-08-05T15:45:02.315Z,27.55
2022-08-05T15:48:05.875Z,27.29
2022-08-05T15:51:09.856Z,27.00
2022-08-05T15:54:15.883Z,27.04
2022-08-05T15:57:18.803Z,26.77
2022-08-05T16:00:26.050Z,26.32
2022-08-05T16:03:35.564Z,26.26
2022-08-05T16:06:43.887Z,26.89
2022-08-05T16:09:48.671Z,26.89
2022-08-05T16:12:51.576Z,26.63
2022-08-05T16:15:55.433Z,26.59
2022-08-05T16:18:58.243Z,26.87
2022-08-05T16:22:03.677Z,26.90
2022-08-05T16:25:09.679Z,26.22
2022-08-05T16:28:13.812Z,26.40
2022-08-05T16:31:20.647Z,26.52
2022-08-05T16:34:25.263Z,26.55
2022-08-05T16:38:02.446Z,26.58
2022-08-05T16:40:59.630Z,25.86
2022-08-05T16:44:03.557Z,26.32
2022-08-05T16:47:07.637Z,26.45
2022-08-05T16:50:30.714Z,26.03
2022-08-05T16:54:05.243Z,26.12
2022-08-05T16:57:01.693Z,26.08
2022-08-05T17:00:10.448Z,26.21
2022-08-05T17:03:20.068Z,25.48
2022-08-05T17:06:24.601Z,25.45
2022-08-05T17:09:27.665Z,25.40
2022-08-05T17:12:51.501Z,24.62
2022-08-05T17:16:02.807Z,25.46
2022-08-05T17:19:18.001Z,25.23
2022-08-05T17:22:25.474Z,24.36
2022-08-05T17:25:34.180Z,25.19
2022-08-05T17:28:44.442Z,24.68
2022-08-05T17:31:58.403Z,24.55
2022-08-05T17:35:01.940Z,25.00
2022-08-05T17:38:07.544Z,24.30
2022-08-05T17:41:11.574Z,23.89
2022-08-05T17:44:35.445Z,23.72
2022-08-05T17:47:38.280Z,24.13
2022-08-05T17:50:41.832Z,24.34
2022-08-05T17:53:45.890Z,23.99
2022-08-05T17:56:57.249Z,23.83
2022-08-05T18:00:03.363Z,23.64
2022-08-05T18:03:10.321Z,23.42
2022-08-05T18:06:15.347Z,23.44
2022-08-05T18:09:18.988Z,23.13
2022-08-05T18:12:24.311Z,23.14
2022-08-05T18:15:38.743Z,23.37
2022-08-05T18:18:49.809Z,22.87
2022-08-05T18:22:08.397Z,22.65
2022-08-05T18:25:14.070Z,22.75
2022-08-05T18:28:21.794Z,22.48
2022-08-05T18:31:33.048Z,22.47
2022-08-05T18:34:41.026Z,22.49
2022-08-05T18:37:45.895Z,22.46
2022-08-05T18:41:55.934Z,22.30
2022-08-05T18:44:15.561Z,22.39
2022-08-05T18:47:39.358Z,22.47
2022-08-05T18:52:03.286Z,23.15
2022-08-05T18:54:25.221Z,22.45
2022-08-05T18:57:42.899Z,22.33
2022-08-05T19:00:46.633Z,22.80
2022-08-05T19:03:56.600Z,22.78
2022-08-05T19:06:59.848Z,22.52
2022-08-05T19:10:04.517Z,22.28
2022-08-05T19:13:15.980Z,22.30
2022-08-05T19:16:24.477Z,22.38
2022-08-05T19:19:34.112Z,22.67
2022-08-05T19:22:39.733Z,22.33
2022-08-05T19:25:47.706Z,22.52
2022-08-05T19:28:50.923Z,22.64
2022-08-05T19:31:56.058Z,22.33
2022-08-05T19:35:06.448Z,22.03
2022-08-05T19:38:10.049Z,21.92
2022-08-05T19:41:16.693Z,21.59
2022-08-05T19:44:29.109Z,21.46
2022-08-05T19:47:32.209Z,21.57
2022-08-05T19:50:39.084Z,21.60
2022-08-05T19:54:04.222Z,21.48
2022-08-05T19:57:09.545Z,21.64
2022-08-05T20:00:13.526Z,21.58
2022-08-05T20:03:16.682Z,21.16
2022-08-05T20:06:28.679Z,21.33
2022-08-05T20:09:54.888Z,21.38
2022-08-05T20:12:55.534Z,21.44
2022-08-05T20:15:59.723Z,21.52
2022-08-05T20:19:04.475Z,21.50
2022-08-05T20:22:13.625Z,21.57
2022-08-05T20:25:16.456Z,21.75
2022-08-05T20:28:19.397Z,21.39
2022-08-05T20:31:28.370Z,21.57
2022-08-05T20:34:44.848Z,21.54
2022-08-05T20:38:05.659Z,20.30
2022-08-05T20:41:09.609Z,20.19
2022-08-05T20:44:19.192Z,19.99
2022-08-05T20:47:32.751Z,19.87
2022-08-05T20:50:39.703Z,19.96
2022-08-05T20:53:56.521Z,19.84
2022-08-05T20:56:59.856Z,19.77
2022-08-05T21:00:20.532Z,19.71
2022-08-05T21:03:34.715Z,20.19
2022-08-05T21:06:37.757Z,19.91
2022-08-05T21:09:53.808Z,19.78
2022-08-05T21:13:08.874Z,20.34
2022-08-05T21:16:17.840Z,20.65
2022-08-05T21:19:20.667Z,20.64
2022-08-05T21:22:26.703Z,20.54
2022-08-05T21:25:33.934Z,20.61
2022-08-05T21:28:37.185Z,20.56
2022-08-05T21:31:41.999Z,20.58
2022-08-05T21:34:44.952Z,20.29
2022-08-05T21:38:07.704Z,20.29
2022-08-05T21:41:12.089Z,20.42
2022-08-05T21:44:18.791Z,20.75
2022-08-05T21:47:55.714Z,20.58
2022-08-05T21:50:54.154Z,20.76
2022-08-05T21:54:03.554Z,20.99
2022-08-05T21:57:31.705Z,20.94
2022-08-05T22:00:31.312Z,20.90
2022-08-05T22:03:48.529Z,21.08
2022-08-05T22:06:57.055Z,21.05
2022-08-05T22:10:00.178Z,20.92
2022-08-05T22:13:09.218Z,21.23
2022-08-05T22:16:41.779Z,21.04
2022-08-05T22:20:02.476Z,20.84
2022-08-05T22:24:02.160Z,21.13
2022-08-05T22:27:11.022Z,20.84
2022-08-05T22:30:20.775Z,20.94
2022-08-05T22:33:55.340Z,20.82
2022-08-05T22:36:46.502Z,20.79
2022-08-05T22:39:50.996Z,21.04
2022-08-05T22:42:58.447Z,20.77
2022-08-05T22:46:07.403Z,20.94
2022-08-05T22:50:17.639Z,20.60
2022-08-05T22:52:38.021Z,20.99
2022-08-05T22:55:56.774Z,21.51
2022-08-05T22:59:03.936Z,21.04
2022-08-05T23:02:29.701Z,20.89
2022-08-05T23:05:36.167Z,20.86
2022-08-05T23:08:39.093Z,20.75
2022-08-05T23:11:46.602Z,20.45
2022-08-05T23:14:52.237Z,20.49
2022-08-05T23:18:01.636Z,20.59
2022-08-05T23:21:05.924Z,20.47
2022-08-05T23:24:13.015Z,20.60
2022-08-05T23:27:16.421Z,20.44
2022-08-05T23:30:26.947Z,20.58
2022-08-05T23:34:04.952Z,20.87
2022-08-05T23:36:54.855Z,20.85
2022-08-05T23:39:57.746Z,20.90
2022-08-05T23:43:00.701Z,20.84
2022-08-05T23:46:20.677Z,20.67
2022-08-05T23:49:35.982Z,20.77
2022-08-05T23:52:49.796Z,20.68
2022-08-05T23:55:53.383Z,20.97
2022-08-05T23:58:58.655Z,20.64
